This is the latest recevied weather packets stored in our database for station/object IK1YPD-13. If no packets are shown the sender has not sent any weather packets the latest 10 day(s).
| Time | Temp. | Humidity | Pressure | Rain* | Wind** | Luminosity | Snow |
|---|---|---|---|---|---|---|---|
| 1787738839 | 28.33° C | 59% | 1013 hPa | - | - | - | - |
| 1787737939 | 28.33° C | 58% | 1013 hPa | - | - | - | - |
| 1787737039 | 27.78° C | 62% | 1014 hPa | - | - | - | - |
| 1787736139 | 27.22° C | 64% | 1014 hPa | - | - | - | - |
| 1787735239 | 26.67° C | 67% | 1014 hPa | - | - | - | - |
| 1787734339 | 27.22° C | 65% | 1013 hPa | - | - | - | - |
| 1787733439 | 27.78° C | 63% | 1013 hPa | - | - | - | - |
| 1787732539 | 28.89° C | 63% | 1013 hPa | - | - | - | - |
| 1787731639 | 29.44° C | 54% | 1012 hPa | - | - | - | - |
| 1787730739 | 30.56° C | 53% | 1013 hPa | - | - | - | - |
| 1787729839 | 28.89° C | 57% | 1013 hPa | - | - | - | - |
| 1787728939 | 25.56° C | 76% | 1013 hPa | - | - | - | - |
| 1787728039 | 26.11° C | 69% | 1013 hPa | - | - | - | - |
| 1787727139 | 24.44° C | 75% | 1013 hPa | - | - | - | - |
| 1787726238 | 23.89° C | 81% | 1012 hPa | - | - | - | - |
| 1787725338 | 22.78° C | 92% | 1012 hPa | - | - | - | - |
| 1787724438 | 21.67° C | 95% | 1012 hPa | - | - | - | - |
| 1787723538 | 21.67° C | 96% | 1012 hPa | - | - | - | - |
| 1787722637 | 21.11° C | 96% | 1012 hPa | - | - | - | - |
| 1787721737 | 21.11° C | 96% | 1012 hPa | - | - | - | - |
| 1787720837 | 21.11° C | 97% | 1012 hPa | - | - | - | - |
| 1787719937 | 21.11° C | 96% | 1012 hPa | - | - | - | - |
| 1787719037 | 20.56° C | 96% | 1012 hPa | - | - | - | - |
| 1787718137 | 20.56° C | 97% | 1012 hPa | - | - | - | - |
| 1787717237 | 21.11° C | 97% | 1012 hPa | - | - | - | - |
* Rain since midnight (hover to see other rain measurements)
** Current wind speed in m/s (hover to see current wind gust speed)